createdAt,value
2022-11-24T00:01:12.805Z,9.10
2022-11-24T00:03:40.714Z,9.20
2022-11-24T00:06:11.933Z,9.80
2022-11-24T00:08:41.303Z,9.30
2022-11-24T00:11:10.956Z,8.93
2022-11-24T00:13:40.115Z,8.80
2022-11-24T00:16:10.730Z,10.13
2022-11-24T00:18:38.952Z,8.70
2022-11-24T00:21:07.122Z,9.00
2022-11-24T00:23:37.185Z,10.00
2022-11-24T00:26:09.722Z,10.87
2022-11-24T00:28:39.025Z,7.37
2022-11-24T00:31:17.402Z,8.47
2022-11-24T00:33:46.135Z,8.87
2022-11-24T00:36:14.110Z,9.80
2022-11-24T00:38:43.588Z,9.60
2022-11-24T00:41:11.424Z,11.17
2022-11-24T00:43:39.279Z,9.47
2022-11-24T00:46:07.644Z,9.17
2022-11-24T00:48:36.207Z,10.03
2022-11-24T00:51:06.907Z,9.20
2022-11-24T00:53:35.340Z,8.70
2022-11-24T00:56:05.156Z,8.73
2022-11-24T00:58:33.749Z,10.53
2022-11-24T01:01:04.719Z,8.93
2022-11-24T01:03:33.156Z,8.97
2022-11-24T01:06:04.562Z,8.30
2022-11-24T01:08:32.537Z,8.67
2022-11-24T01:11:10.250Z,8.57
2022-11-24T01:13:38.693Z,8.70
2022-11-24T01:16:06.977Z,8.60
2022-11-24T01:18:34.888Z,10.13
2022-11-24T01:21:09.873Z,9.30
2022-11-24T01:23:38.246Z,9.40
2022-11-24T01:26:07.248Z,14.77
2022-11-24T01:28:40.580Z,14.87
2022-11-24T01:31:11.458Z,14.67
2022-11-24T01:33:39.730Z,13.77
2022-11-24T01:36:08.064Z,15.30
2022-11-24T01:38:36.036Z,12.70
2022-11-24T01:41:06.277Z,12.87
2022-11-24T01:43:34.556Z,12.03
2022-11-24T01:46:12.712Z,12.10
2022-11-24T01:48:44.739Z,11.77
2022-11-24T01:51:16.259Z,10.63
2022-11-24T01:53:50.272Z,12.20
2022-11-24T01:56:18.129Z,18.20
2022-11-24T01:58:48.552Z,14.87
2022-11-24T02:01:17.818Z,14.67
2022-11-24T02:03:49.052Z,14.40
2022-11-24T02:06:22.250Z,15.13
2022-11-24T02:08:54.464Z,14.33
2022-11-24T02:11:25.181Z,13.27
2022-11-24T02:13:55.288Z,14.03
2022-11-24T02:16:24.716Z,13.43
2022-11-24T02:18:52.704Z,14.60
2022-11-24T02:21:20.932Z,15.90
2022-11-24T02:24:01.951Z,16.17
2022-11-24T02:26:41.384Z,15.10
2022-11-24T02:29:10.506Z,15.43
2022-11-24T02:31:38.758Z,15.70
2022-11-24T02:34:06.694Z,15.80
2022-11-24T02:36:34.494Z,16.13
2022-11-24T02:39:02.320Z,17.87
2022-11-24T02:41:30.487Z,17.63
2022-11-24T02:44:02.950Z,17.27
2022-11-24T02:46:30.847Z,18.27
2022-11-24T02:48:58.945Z,21.73
2022-11-24T02:51:26.819Z,18.47
2022-11-24T02:53:54.676Z,16.77
2022-11-24T02:56:22.536Z,17.33
2022-11-24T02:58:50.360Z,20.57
2022-11-24T03:01:20.117Z,20.87
2022-11-24T03:03:48.132Z,17.53
2022-11-24T03:06:15.969Z,21.17
2022-11-24T03:08:44.081Z,19.23
2022-11-24T03:11:12.166Z,21.17
2022-11-24T03:13:39.972Z,17.60
2022-11-24T03:16:09.688Z,19.77
2022-11-24T03:18:39.039Z,18.03
2022-11-24T03:21:07.271Z,19.40
2022-11-24T03:23:35.089Z,17.93
2022-11-24T03:26:10.558Z,19.67
2022-11-24T03:28:39.075Z,18.37
2022-11-24T03:31:07.639Z,18.57
2022-11-24T03:33:35.604Z,17.33
2022-11-24T03:36:05.892Z,17.53
2022-11-24T03:38:34.114Z,18.53
2022-11-24T03:41:01.940Z,19.33
2022-11-24T03:43:31.095Z,18.40
2022-11-24T03:45:58.957Z,21.50
2022-11-24T03:48:26.790Z,20.80
2022-11-24T03:50:56.366Z,18.17
2022-11-24T03:53:27.496Z,17.53
2022-11-24T03:55:55.580Z,20.20
2022-11-24T03:58:23.463Z,20.77
2022-11-24T04:00:52.671Z,18.63
2022-11-24T04:03:21.011Z,20.50
2022-11-24T04:05:49.295Z,22.80
2022-11-24T04:08:17.876Z,21.17
2022-11-24T04:10:50.929Z,20.30
2022-11-24T04:13:19.837Z,21.20
2022-11-24T04:15:47.734Z,22.60
2022-11-24T04:18:15.689Z,25.77
2022-11-24T04:20:44.100Z,22.37
2022-11-24T04:23:12.472Z,22.47
2022-11-24T04:25:41.531Z,23.23
2022-11-24T04:28:10.941Z,21.77
2022-11-24T04:30:40.271Z,19.40
2022-11-24T04:33:08.066Z,25.30
2022-11-24T04:35:36.695Z,21.50
2022-11-24T04:38:04.700Z,18.80
2022-11-24T04:40:32.501Z,19.53
2022-11-24T04:43:00.346Z,23.13
2022-11-24T04:45:29.563Z,23.63
2022-11-24T04:47:57.390Z,21.27
2022-11-24T04:50:25.323Z,24.37
2022-11-24T04:52:53.402Z,22.47
2022-11-24T04:55:23.603Z,22.47
2022-11-24T04:57:51.446Z,30.57
2022-11-24T05:00:20.236Z,21.50
2022-11-24T05:02:49.424Z,21.70
2022-11-24T05:05:17.358Z,20.03
2022-11-24T05:07:45.218Z,21.20
2022-11-24T05:10:30.533Z,22.67
2022-11-24T05:12:59.557Z,20.17
2022-11-24T05:15:29.134Z,22.83
2022-11-24T05:18:08.570Z,21.57
2022-11-24T05:20:38.502Z,24.90
2022-11-24T05:23:09.364Z,20.80
2022-11-24T05:25:39.732Z,21.23
2022-11-24T05:28:13.611Z,20.83
2022-11-24T05:30:42.872Z,23.53
2022-11-24T05:33:19.006Z,22.40
2022-11-24T05:35:47.496Z,23.83
2022-11-24T05:38:15.864Z,26.13
2022-11-24T05:40:48.129Z,28.63
2022-11-24T05:43:46.733Z,30.20
2022-11-24T05:46:18.622Z,26.67
2022-11-24T05:48:47.900Z,35.20
2022-11-24T05:51:17.468Z,34.77
2022-11-24T05:54:00.494Z,29.00
2022-11-24T05:56:46.309Z,23.87
2022-11-24T05:59:14.497Z,33.17
2022-11-24T06:01:51.102Z,30.00
2022-11-24T06:07:37.367Z,30.33
2022-11-24T06:10:20.828Z,27.47
2022-11-24T06:13:03.451Z,21.80
2022-11-24T06:15:40.775Z,26.53
2022-11-24T06:18:14.884Z,24.47
2022-11-24T06:21:10.246Z,25.50
2022-11-24T06:23:53.394Z,24.80
2022-11-24T06:26:45.787Z,26.90
2022-11-24T06:31:52.785Z,24.33
2022-11-24T06:34:29.257Z,23.70
2022-11-24T06:37:15.357Z,21.10
2022-11-24T06:40:19.255Z,20.40
2022-11-24T06:43:06.611Z,19.20
2022-11-24T06:45:47.755Z,19.97
2022-11-24T06:48:48.822Z,23.13
2022-11-24T06:54:46.710Z,22.20
2022-11-24T06:58:07.039Z,19.87
2022-11-24T07:01:01.248Z,25.57
2022-11-24T07:03:51.063Z,26.00
2022-11-24T07:06:40.216Z,27.10
2022-11-24T07:09:27.360Z,24.13
2022-11-24T07:12:21.143Z,27.60
2022-11-24T07:14:56.986Z,24.00
2022-11-24T07:17:31.978Z,21.63
2022-11-24T07:20:11.616Z,19.90
2022-11-24T07:22:43.018Z,16.67
2022-11-24T07:25:14.522Z,13.30
2022-11-24T07:28:02.143Z,10.53
2022-11-24T07:30:33.400Z,10.37
2022-11-24T07:33:16.017Z,10.60
2022-11-24T07:35:47.780Z,12.33
2022-11-24T07:38:29.517Z,12.63
2022-11-24T07:41:03.811Z,13.67
2022-11-24T07:43:36.346Z,14.37
2022-11-24T07:46:19.243Z,12.47
2022-11-24T07:48:53.897Z,16.47
2022-11-24T07:51:23.337Z,15.97
2022-11-24T07:53:54.658Z,15.93
2022-11-24T07:56:26.138Z,16.00
2022-11-24T07:58:58.465Z,17.73
2022-11-24T08:04:43.428Z,17.90
2022-11-24T08:07:16.144Z,14.90
2022-11-24T08:10:05.156Z,14.07
2022-11-24T08:12:37.781Z,24.57
2022-11-24T08:15:11.456Z,14.53
2022-11-24T08:17:49.115Z,13.30
2022-11-24T08:20:37.505Z,11.87
2022-11-24T08:23:14.228Z,14.23
2022-11-24T08:25:44.606Z,12.60
2022-11-24T08:28:19.283Z,11.90
2022-11-24T08:31:05.478Z,12.23
2022-11-24T08:33:37.225Z,11.63
2022-11-24T08:36:10.678Z,13.57
2022-11-24T08:38:48.454Z,11.13
2022-11-24T08:41:23.450Z,11.40
2022-11-24T08:44:00.881Z,12.33
2022-11-24T08:46:30.461Z,12.83
2022-11-24T08:49:16.848Z,11.53
2022-11-24T08:52:02.597Z,11.23
2022-11-24T08:54:48.344Z,12.07
2022-11-24T09:03:33.145Z,7.17
2022-11-24T09:06:11.408Z,5.77
2022-11-24T09:08:40.059Z,6.70
2022-11-24T09:11:30.108Z,5.27
2022-11-24T09:14:14.817Z,4.40
2022-11-24T09:16:45.087Z,6.57
2022-11-24T09:19:17.597Z,7.60
2022-11-24T09:21:50.913Z,6.63
2022-11-24T09:24:23.672Z,4.90
2022-11-24T09:27:18.072Z,3.90
2022-11-24T09:29:57.475Z,3.10
2022-11-24T09:32:35.533Z,2.90
2022-11-24T09:35:24.218Z,4.23
2022-11-24T09:38:49.028Z,3.47
2022-11-24T09:41:59.421Z,3.57
2022-11-24T09:45:06.378Z,3.10
2022-11-24T09:48:01.654Z,3.97
2022-11-24T09:50:40.616Z,3.70
2022-11-24T09:53:37.458Z,6.57
2022-11-24T09:56:26.221Z,3.73
2022-11-24T09:59:00.627Z,4.60
2022-11-24T10:01:58.882Z,6.77
2022-11-24T10:04:39.297Z,4.03
2022-11-24T10:07:21.251Z,5.03
2022-11-24T10:10:18.513Z,6.50
2022-11-24T10:13:07.307Z,4.60
2022-11-24T10:15:50.994Z,3.20
2022-11-24T10:18:41.876Z,3.97
2022-11-24T10:21:30.729Z,7.10
2022-11-24T10:24:33.287Z,10.73
2022-11-24T10:27:05.308Z,4.90
2022-11-24T10:29:38.142Z,4.43
2022-11-24T10:32:16.733Z,5.10
2022-11-24T10:34:48.247Z,7.63
2022-11-24T10:37:27.546Z,5.30
2022-11-24T10:40:02.173Z,4.97
2022-11-24T10:42:39.985Z,14.47
2022-11-24T10:45:18.624Z,5.00
2022-11-24T10:47:50.396Z,5.20
2022-11-24T10:50:22.690Z,4.23
2022-11-24T10:53:11.204Z,7.13
2022-11-24T10:55:59.803Z,8.83
2022-11-24T10:58:37.947Z,9.13
2022-11-24T11:01:23.921Z,12.63
2022-11-24T11:03:56.586Z,5.60
2022-11-24T11:06:29.444Z,6.00
2022-11-24T11:09:27.256Z,9.73
2022-11-24T11:12:10.047Z,5.47
2022-11-24T11:14:50.499Z,6.03
2022-11-24T11:17:40.379Z,7.40
2022-11-24T11:20:26.659Z,7.57
2022-11-24T11:23:08.301Z,6.67
2022-11-24T11:25:41.138Z,11.93
2022-11-24T11:28:37.869Z,7.13
2022-11-24T11:31:16.465Z,7.23
2022-11-24T11:34:25.058Z,7.43
2022-11-24T11:37:11.284Z,6.73
2022-11-24T11:39:48.672Z,7.43
2022-11-24T11:45:44.299Z,9.27
2022-11-24T11:48:28.282Z,7.10
2022-11-24T11:51:27.066Z,8.73
2022-11-24T11:54:19.570Z,12.03
2022-11-24T11:56:51.134Z,7.30
2022-11-24T11:59:41.468Z,7.90
2022-11-24T12:02:49.965Z,7.67
2022-11-24T12:05:30.478Z,6.93
2022-11-24T12:08:43.990Z,7.43
2022-11-24T12:11:47.779Z,7.27
2022-11-24T12:14:39.213Z,7.03
2022-11-24T12:17:19.419Z,5.77
2022-11-24T12:20:04.664Z,6.00
2022-11-24T12:22:55.622Z,6.07
2022-11-24T12:25:37.173Z,6.53
2022-11-24T12:28:19.511Z,6.33
2022-11-24T12:31:04.895Z,15.60
2022-11-24T12:34:00.768Z,7.07
2022-11-24T12:36:52.197Z,5.50
2022-11-24T12:39:50.593Z,6.40
2022-11-24T12:42:55.340Z,5.50
2022-11-24T12:45:30.215Z,13.77
2022-11-24T12:48:29.146Z,5.90
2022-11-24T12:51:01.207Z,8.73
2022-11-24T12:53:54.012Z,7.53
2022-11-24T12:56:56.369Z,4.83
2022-11-24T12:59:39.002Z,5.37
2022-11-24T13:02:28.016Z,5.00
2022-11-24T13:05:07.509Z,6.73
2022-11-24T13:07:46.205Z,6.13
2022-11-24T13:11:02.469Z,6.53
2022-11-24T13:14:27.506Z,6.60
2022-11-24T13:23:59.142Z,5.60
2022-11-24T13:30:44.177Z,8.57
2022-11-24T13:37:26.394Z,5.40
2022-11-24T13:40:31.670Z,7.23
2022-11-24T13:47:05.702Z,4.97
2022-11-24T13:50:17.509Z,4.70
2022-11-24T13:53:37.704Z,5.97
2022-11-24T13:56:24.016Z,30.07
2022-11-24T13:59:28.026Z,7.87
2022-11-24T14:02:28.046Z,5.63
2022-11-24T14:04:57.602Z,4.50
2022-11-24T14:07:25.743Z,5.37
2022-11-24T14:09:55.056Z,4.93
2022-11-24T14:12:31.978Z,7.10
2022-11-24T14:15:22.971Z,4.63
2022-11-24T14:17:50.795Z,9.10
2022-11-24T14:20:24.796Z,9.63
2022-11-24T14:22:54.629Z,6.37
2022-11-24T14:25:31.389Z,6.07
2022-11-24T14:28:03.671Z,6.33
2022-11-24T14:30:31.788Z,6.73
2022-11-24T14:33:01.196Z,7.10
2022-11-24T14:35:31.307Z,6.00
2022-11-24T14:37:59.569Z,9.43
2022-11-24T14:41:04.677Z,6.83
2022-11-24T14:49:44.760Z,5.30
2022-11-24T14:52:49.838Z,5.40
2022-11-24T14:55:55.058Z,10.73
2022-11-24T14:58:53.167Z,5.60
2022-11-24T15:01:33.438Z,8.97
2022-11-24T15:05:02.146Z,6.33
2022-11-24T15:07:31.116Z,6.87
2022-11-24T15:10:01.675Z,8.17
2022-11-24T15:12:34.350Z,8.17
2022-11-24T15:16:11.738Z,7.77
2022-11-24T15:18:50.002Z,9.30
2022-11-24T15:21:30.747Z,10.90
2022-11-24T15:26:38.457Z,10.37
2022-11-24T15:29:10.070Z,7.93
2022-11-24T15:31:39.243Z,8.00
2022-11-24T15:34:13.343Z,8.23
2022-11-24T15:36:41.206Z,7.70
2022-11-24T15:39:09.140Z,9.47
2022-11-24T15:41:36.992Z,12.30
2022-11-24T15:44:05.119Z,10.47
2022-11-24T15:46:38.049Z,14.47
2022-11-24T15:49:08.229Z,13.90
2022-11-24T15:51:36.903Z,9.47
2022-11-24T15:54:05.988Z,13.50
2022-11-24T15:56:36.415Z,5.53
2022-11-24T15:59:05.588Z,7.10
2022-11-24T16:01:34.957Z,8.47
2022-11-24T16:04:03.255Z,8.73
2022-11-24T16:06:32.810Z,7.40
2022-11-24T16:09:01.070Z,7.20
2022-11-24T16:11:29.011Z,7.53
2022-11-24T16:13:57.163Z,10.97
2022-11-24T16:16:25.733Z,8.60
2022-11-24T16:18:53.947Z,8.60
2022-11-24T16:21:22.472Z,7.83
2022-11-24T16:23:52.821Z,8.97
2022-11-24T16:26:22.777Z,7.17
2022-11-24T16:28:50.632Z,8.70
2022-11-24T16:31:19.835Z,7.93
2022-11-24T16:33:47.832Z,7.13
2022-11-24T16:36:18.104Z,6.60
2022-11-24T16:38:45.920Z,8.27
2022-11-24T16:41:16.142Z,9.30
2022-11-24T16:43:43.966Z,7.53
2022-11-24T16:46:20.348Z,7.33
2022-11-24T16:48:49.625Z,7.53
2022-11-24T16:51:18.657Z,6.33
2022-11-24T16:53:46.776Z,7.10
2022-11-24T16:56:16.563Z,6.70
2022-11-24T16:58:44.487Z,7.57
2022-11-24T17:01:14.523Z,8.40
2022-11-24T17:03:42.709Z,8.80
2022-11-24T17:06:12.460Z,8.70
2022-11-24T17:08:41.868Z,8.27
2022-11-24T17:11:10.914Z,8.07
2022-11-24T17:13:41.506Z,7.80
2022-11-24T17:16:11.521Z,7.33
2022-11-24T17:18:40.502Z,7.57
2022-11-24T17:21:10.896Z,10.00
2022-11-24T17:23:39.073Z,7.53
2022-11-24T17:26:08.609Z,8.17
2022-11-24T17:28:39.295Z,8.90
2022-11-24T17:31:09.182Z,6.13
2022-11-24T17:33:37.123Z,8.27
2022-11-24T17:36:05.963Z,8.33
2022-11-24T17:38:35.102Z,8.20
2022-11-24T17:41:03.110Z,6.90
2022-11-24T17:43:30.922Z,6.43
2022-11-24T17:46:00.998Z,6.53
2022-11-24T17:48:31.543Z,6.77
2022-11-24T17:51:00.914Z,6.37
2022-11-24T17:53:30.324Z,9.03
2022-11-24T17:56:00.378Z,7.93
2022-11-24T17:58:31.914Z,8.30
2022-11-24T18:01:00.252Z,11.00
2022-11-24T18:03:31.641Z,6.83
2022-11-24T18:06:05.075Z,8.57
2022-11-24T18:08:33.977Z,8.33
2022-11-24T18:11:05.729Z,7.80
2022-11-24T18:13:55.659Z,6.60
2022-11-24T18:16:21.966Z,7.23
2022-11-24T18:19:07.417Z,8.23
2022-11-24T18:21:36.764Z,7.73
2022-11-24T18:24:04.949Z,8.87
2022-11-24T18:26:32.882Z,7.90
2022-11-24T18:29:01.218Z,7.30
2022-11-24T18:31:31.332Z,7.53
2022-11-24T18:34:00.976Z,8.07
2022-11-24T18:36:32.016Z,8.37
2022-11-24T18:39:03.863Z,8.90
2022-11-24T18:41:31.811Z,9.30
2022-11-24T18:44:02.231Z,7.60
2022-11-24T18:46:30.342Z,10.30
2022-11-24T18:48:58.198Z,8.27
2022-11-24T18:51:27.488Z,7.40
2022-11-24T18:53:58.155Z,7.37
2022-11-24T18:56:26.895Z,8.13
2022-11-24T18:58:57.073Z,7.90
2022-11-24T19:01:26.248Z,8.03
2022-11-24T19:03:55.906Z,8.57
2022-11-24T19:06:31.969Z,7.87
2022-11-24T19:09:01.274Z,6.97
2022-11-24T19:11:32.413Z,8.30
2022-11-24T19:14:00.363Z,6.93
2022-11-24T19:16:28.373Z,6.20
2022-11-24T19:19:00.063Z,6.47
2022-11-24T19:21:31.265Z,6.13
2022-11-24T19:24:04.549Z,6.73
2022-11-24T19:26:33.114Z,7.13
2022-11-24T19:29:00.977Z,6.17
2022-11-24T19:31:28.885Z,5.73
2022-11-24T19:33:58.659Z,6.10
2022-11-24T19:36:26.841Z,5.93
2022-11-24T19:38:57.378Z,6.60
2022-11-24T19:41:27.395Z,6.40
2022-11-24T19:43:55.537Z,6.77
2022-11-24T19:46:27.307Z,5.70
2022-11-24T19:48:57.198Z,7.00
2022-11-24T19:51:26.915Z,5.63
2022-11-24T19:53:56.140Z,6.00
2022-11-24T19:56:28.688Z,6.03
2022-11-24T19:58:57.356Z,6.93
2022-11-24T20:01:27.949Z,6.40
2022-11-24T20:03:58.956Z,5.93
2022-11-24T20:06:28.089Z,5.37
2022-11-24T20:08:58.606Z,6.20
2022-11-24T20:11:26.493Z,8.07
2022-11-24T20:13:54.833Z,7.43
2022-11-24T20:16:26.671Z,6.40
2022-11-24T20:18:56.660Z,6.20
2022-11-24T20:21:28.513Z,6.37
2022-11-24T20:24:00.672Z,5.77
2022-11-24T20:26:31.220Z,6.87
2022-11-24T20:29:00.179Z,6.40
2022-11-24T20:31:30.457Z,5.20
2022-11-24T20:33:58.471Z,6.33
2022-11-24T20:36:28.361Z,5.73
2022-11-24T20:38:57.895Z,6.20
2022-11-24T20:41:27.480Z,6.40
2022-11-24T20:43:56.751Z,6.33
2022-11-24T20:46:26.047Z,6.87
2022-11-24T20:48:54.962Z,6.77
2022-11-24T20:51:24.468Z,5.83
2022-11-24T20:53:54.435Z,5.67
2022-11-24T20:56:25.209Z,5.40
2022-11-24T20:58:53.616Z,6.73
2022-11-24T21:01:26.743Z,5.83
2022-11-24T21:03:56.156Z,6.03
2022-11-24T21:09:19.466Z,5.87
2022-11-24T21:11:55.222Z,6.77
2022-11-24T21:14:24.488Z,6.97
2022-11-24T21:16:52.413Z,7.57
2022-11-24T21:19:20.310Z,5.60
2022-11-24T21:21:57.789Z,5.67
2022-11-24T21:24:25.633Z,5.47
2022-11-24T21:26:57.394Z,7.40
2022-11-24T21:29:41.537Z,6.80
2022-11-24T21:32:13.676Z,5.80
2022-11-24T21:34:41.578Z,5.33
2022-11-24T21:37:14.690Z,7.37
2022-11-24T21:39:44.645Z,5.37
2022-11-24T21:42:16.561Z,6.70
2022-11-24T21:44:44.448Z,7.67
2022-11-24T21:47:12.355Z,5.83
2022-11-24T21:49:43.671Z,6.83
2022-11-24T21:52:11.605Z,6.03
2022-11-24T21:54:40.283Z,6.10
2022-11-24T21:57:08.320Z,7.80
2022-11-24T21:59:40.092Z,5.20
2022-11-24T22:02:12.874Z,5.13
2022-11-24T22:04:41.121Z,6.43
2022-11-24T22:07:09.078Z,5.70
2022-11-24T22:09:39.777Z,5.70
2022-11-24T22:12:10.446Z,5.23
2022-11-24T22:14:42.522Z,5.97
2022-11-24T22:17:10.501Z,5.60
2022-11-24T22:19:38.592Z,4.77
2022-11-24T22:22:06.498Z,5.40
2022-11-24T22:24:34.350Z,7.03
2022-11-24T22:27:02.969Z,6.30
2022-11-24T22:29:30.872Z,7.00
2022-11-24T22:32:11.278Z,7.00
2022-11-24T22:34:39.150Z,5.20
2022-11-24T22:37:07.002Z,6.67
2022-11-24T22:39:34.860Z,5.90
2022-11-24T22:42:02.765Z,7.10
2022-11-24T22:44:30.595Z,5.43
2022-11-24T22:46:59.954Z,4.80
2022-11-24T22:49:29.495Z,4.40
2022-11-24T22:51:57.389Z,5.57
2022-11-24T22:54:25.536Z,4.33
2022-11-24T22:56:53.394Z,4.37
2022-11-24T22:59:21.281Z,3.97
2022-11-24T23:01:49.164Z,4.20
2022-11-24T23:04:17.288Z,3.90
2022-11-24T23:06:46.563Z,4.03
2022-11-24T23:09:14.469Z,4.17
2022-11-24T23:11:42.718Z,4.10
2022-11-24T23:14:17.140Z,6.43
2022-11-24T23:16:45.687Z,4.33
2022-11-24T23:19:13.877Z,4.70
2022-11-24T23:21:41.752Z,4.17
2022-11-24T23:24:11.797Z,4.30
2022-11-24T23:26:41.062Z,4.10
2022-11-24T23:29:10.694Z,3.87
2022-11-24T23:31:40.152Z,4.40
2022-11-24T23:34:08.470Z,4.43
2022-11-24T23:36:36.324Z,4.40
2022-11-24T23:39:05.157Z,5.03
2022-11-24T23:41:34.797Z,5.20
2022-11-24T23:44:02.666Z,4.57
2022-11-24T23:46:30.934Z,4.90
2022-11-24T23:48:58.774Z,5.20
2022-11-24T23:51:28.485Z,5.40
2022-11-24T23:53:57.074Z,5.17
2022-11-24T23:56:26.536Z,5.30
2022-11-24T23:58:55.794Z,5.40
